createdAt,value
2022-11-08T00:00:43.865Z,11.9
2022-11-08T00:02:00.969Z,11.8
2022-11-08T00:03:18.074Z,11.8
2022-11-08T00:04:35.178Z,11.9
2022-11-08T00:05:52.282Z,11.8
2022-11-08T00:07:09.387Z,11.8
2022-11-08T00:08:26.492Z,11.8
2022-11-08T00:09:42.612Z,11.8
2022-11-08T00:10:59.717Z,11.7
2022-11-08T00:12:16.821Z,11.7
2022-11-08T00:13:33.925Z,11.7
2022-11-08T00:14:51.029Z,11.6
2022-11-08T00:16:08.134Z,11.6
2022-11-08T00:17:25.238Z,11.7
2022-11-08T00:18:42.342Z,11.6
2022-11-08T00:19:59.447Z,11.6
2022-11-08T00:21:16.551Z,11.5
2022-11-08T00:22:33.656Z,11.5
2022-11-08T00:23:50.760Z,11.5
2022-11-08T00:25:07.865Z,11.5
2022-11-08T00:26:23.985Z,11.5
2022-11-08T00:27:41.089Z,11.5
2022-11-08T00:28:58.194Z,11.5
2022-11-08T00:30:15.298Z,11.5
2022-11-08T00:31:32.403Z,11.5
2022-11-08T00:32:49.507Z,11.4
2022-11-08T00:34:06.612Z,11.4
2022-11-08T00:35:23.716Z,11.4
2022-11-08T00:36:40.820Z,11.4
2022-11-08T00:37:57.925Z,11.3
2022-11-08T00:39:15.029Z,11.3
2022-11-08T00:40:32.134Z,11.2
2022-11-08T00:41:49.239Z,11.3
2022-11-08T00:43:05.359Z,11.2
2022-11-08T00:44:22.464Z,11.2
2022-11-08T00:45:39.568Z,11.2
2022-11-08T00:46:56.673Z,11.2
2022-11-08T00:48:13.777Z,11.1
2022-11-08T00:49:30.882Z,11.2
2022-11-08T00:50:47.986Z,11.2
2022-11-08T00:52:05.090Z,11.1
2022-11-08T00:53:22.195Z,11.1
2022-11-08T00:54:39.300Z,11.1
2022-11-08T00:55:56.404Z,11.1
2022-11-08T00:57:13.508Z,11
2022-11-08T00:58:30.613Z,11
2022-11-08T00:59:46.733Z,11
2022-11-08T01:01:03.838Z,11
2022-11-08T01:02:20.942Z,11
2022-11-08T01:03:38.046Z,11
2022-11-08T01:04:55.151Z,11
2022-11-08T01:06:12.256Z,11
2022-11-08T01:07:29.360Z,11
2022-11-08T01:08:46.464Z,11
2022-11-08T01:10:03.569Z,10.9
2022-11-08T01:11:20.673Z,11
2022-11-08T01:12:37.779Z,10.9
2022-11-08T01:13:54.883Z,10.9
2022-11-08T01:15:11.988Z,11
2022-11-08T01:16:28.108Z,11
2022-11-08T01:17:45.213Z,10.9
2022-11-08T01:19:02.317Z,11
2022-11-08T01:20:19.422Z,10.9
2022-11-08T01:21:36.526Z,10.9
2022-11-08T01:22:53.630Z,10.9
2022-11-08T01:24:10.735Z,10.9
2022-11-08T01:25:27.839Z,10.9
2022-11-08T01:26:44.944Z,10.9
2022-11-08T01:28:02.048Z,11
2022-11-08T01:29:19.153Z,11
2022-11-08T01:30:36.257Z,11
2022-11-08T01:31:53.361Z,11
2022-11-08T01:33:09.482Z,11.1
2022-11-08T01:34:26.586Z,11.1
2022-11-08T01:35:43.692Z,11.1
2022-11-08T01:37:00.796Z,11.1
2022-11-08T01:38:17.901Z,11.2
2022-11-08T01:39:35.005Z,11.2
2022-11-08T01:40:52.110Z,11.1
2022-11-08T01:42:09.214Z,11.2
2022-11-08T01:43:26.318Z,11.2
2022-11-08T01:44:43.423Z,11.2
2022-11-08T01:46:00.527Z,11.2
2022-11-08T01:47:17.633Z,11.2
2022-11-08T01:48:34.737Z,11.3
2022-11-08T01:49:50.858Z,11.3
2022-11-08T01:51:07.962Z,11.3
2022-11-08T01:52:25.067Z,11.3
2022-11-08T01:53:42.171Z,11.4
2022-11-08T01:54:59.275Z,11.4
2022-11-08T01:56:16.380Z,11.4
2022-11-08T01:57:32.500Z,11.4
2022-11-08T01:58:49.605Z,11.5
2022-11-08T02:00:06.709Z,11.5
2022-11-08T02:01:23.814Z,11.5
2022-11-08T02:02:40.918Z,11.5
2022-11-08T02:03:58.023Z,11.5
2022-11-08T02:05:15.127Z,11.5
2022-11-08T02:06:32.231Z,11.5
2022-11-08T02:07:49.336Z,11.5
2022-11-08T02:09:06.440Z,11.5
2022-11-08T02:10:23.545Z,11.5
2022-11-08T02:11:40.650Z,11.5
2022-11-08T02:12:57.754Z,11.5
2022-11-08T02:14:13.875Z,11.5
2022-11-08T02:15:30.979Z,11.5
2022-11-08T02:16:48.083Z,11.5
2022-11-08T02:18:05.188Z,11.5
2022-11-08T02:19:22.292Z,11.5
2022-11-08T02:20:39.397Z,11.5
2022-11-08T02:21:56.501Z,11.5
2022-11-08T02:23:13.606Z,11.5
2022-11-08T02:24:30.710Z,11.5
2022-11-08T02:25:47.815Z,11.5
2022-11-08T02:27:04.919Z,11.5
2022-11-08T02:28:22.023Z,11.6
2022-11-08T02:29:39.128Z,11.5
2022-11-08T02:30:55.248Z,11.6
2022-11-08T02:32:12.353Z,11.6
2022-11-08T02:33:29.458Z,11.5
2022-11-08T02:34:46.563Z,11.5
2022-11-08T02:36:03.668Z,11.5
2022-11-08T02:37:20.772Z,11.6
2022-11-08T02:38:37.877Z,11.6
2022-11-08T02:39:54.981Z,11.6
2022-11-08T02:41:12.085Z,11.6
2022-11-08T02:42:29.190Z,11.5
2022-11-08T02:43:46.294Z,11.5
2022-11-08T02:45:03.400Z,11.5
2022-11-08T02:46:20.505Z,11.5
2022-11-08T02:47:36.625Z,11.5
2022-11-08T02:48:53.730Z,11.5
2022-11-08T02:50:10.834Z,11.5
2022-11-08T02:51:27.939Z,11.4
2022-11-08T02:52:45.043Z,11.5
2022-11-08T02:54:02.147Z,11.4
2022-11-08T02:55:19.252Z,11.4
2022-11-08T02:56:36.358Z,11.4
2022-11-08T02:57:53.462Z,11.4
2022-11-08T02:59:10.566Z,11.3
2022-11-08T03:00:27.671Z,11.3
2022-11-08T03:01:44.775Z,11.3
2022-11-08T03:03:01.880Z,11.3
2022-11-08T03:04:18.000Z,11.2
2022-11-08T03:05:35.105Z,11.2
2022-11-08T03:06:52.209Z,11.2
2022-11-08T03:08:09.314Z,11.1
2022-11-08T03:09:26.418Z,11.1
2022-11-08T03:10:43.522Z,11.1
2022-11-08T03:12:00.627Z,11.1
2022-11-08T03:13:17.731Z,11.1
2022-11-08T03:14:34.836Z,11.1
2022-11-08T03:15:51.940Z,11.1
2022-11-08T03:17:09.045Z,11.1
2022-11-08T03:18:26.149Z,11
2022-11-08T03:19:43.254Z,11
2022-11-08T03:20:59.374Z,11
2022-11-08T03:22:16.479Z,11
2022-11-08T03:23:33.583Z,10.9
2022-11-08T03:24:50.688Z,10.9
2022-11-08T03:26:07.792Z,10.9
2022-11-08T03:27:24.896Z,10.9
2022-11-08T03:28:42.001Z,10.9
2022-11-08T03:29:59.104Z,10.9
2022-11-08T03:31:16.208Z,10.8
2022-11-08T03:32:33.312Z,10.9
2022-11-08T03:33:50.417Z,10.8
2022-11-08T03:35:07.521Z,10.9
2022-11-08T03:36:24.626Z,10.9
2022-11-08T03:37:40.746Z,10.9
2022-11-08T03:38:57.850Z,10.9
2022-11-08T03:40:14.955Z,10.9
2022-11-08T03:41:32.060Z,10.9
2022-11-08T03:42:49.164Z,10.9
2022-11-08T03:44:06.269Z,10.9
2022-11-08T03:45:23.373Z,10.9
2022-11-08T03:46:40.477Z,10.8
2022-11-08T03:47:57.582Z,10.8
2022-11-08T03:49:14.686Z,10.8
2022-11-08T03:50:31.791Z,10.8
2022-11-08T03:51:48.895Z,10.8
2022-11-08T03:53:06.000Z,10.7
2022-11-08T03:54:22.120Z,10.8
2022-11-08T03:55:39.225Z,10.8
2022-11-08T03:56:56.329Z,10.8
2022-11-08T03:58:13.434Z,10.8
2022-11-08T03:59:30.538Z,10.7
2022-11-08T04:00:47.642Z,10.7
2022-11-08T04:02:04.747Z,10.7
2022-11-08T04:03:21.852Z,10.6
2022-11-08T04:04:38.956Z,10.6
2022-11-08T04:05:56.060Z,10.6
2022-11-08T04:07:13.165Z,10.6
2022-11-08T04:08:30.269Z,10.6
2022-11-08T04:09:47.374Z,10.6
2022-11-08T04:11:03.494Z,10.6
2022-11-08T04:12:20.599Z,10.6
2022-11-08T04:13:37.703Z,10.5
2022-11-08T04:14:54.808Z,10.5
2022-11-08T04:16:11.912Z,10.4
2022-11-08T04:17:29.017Z,10.4
2022-11-08T04:18:46.121Z,10.3
2022-11-08T04:20:03.225Z,10.3
2022-11-08T04:21:20.330Z,10.3
2022-11-08T04:22:37.434Z,10.3
2022-11-08T04:23:54.539Z,10.2
2022-11-08T04:25:11.644Z,10.2
2022-11-08T04:26:28.748Z,10.2
2022-11-08T04:27:44.869Z,10.2
2022-11-08T04:29:01.973Z,10.2
2022-11-08T04:30:19.078Z,10.1
2022-11-08T04:31:36.182Z,10.1
2022-11-08T04:32:53.287Z,10.1
2022-11-08T04:34:10.391Z,10.1
2022-11-08T04:35:27.496Z,10.1
2022-11-08T04:36:44.600Z,10.1
2022-11-08T04:38:01.705Z,10.1
2022-11-08T04:39:18.809Z,10.1
2022-11-08T04:40:35.914Z,10.1
2022-11-08T04:41:53.018Z,10.1
2022-11-08T04:43:10.123Z,10
2022-11-08T04:44:26.243Z,10
2022-11-08T04:45:43.348Z,10
2022-11-08T04:47:00.452Z,10
2022-11-08T04:48:17.557Z,9.9
2022-11-08T04:49:34.662Z,9.9
2022-11-08T04:50:51.766Z,9.9
2022-11-08T04:52:08.871Z,9.9
2022-11-08T04:53:25.975Z,9.9
2022-11-08T04:54:43.080Z,9.9
2022-11-08T04:56:00.184Z,9.9
2022-11-08T04:57:17.289Z,9.9
2022-11-08T04:58:34.394Z,9.8
2022-11-08T04:59:51.498Z,9.8
2022-11-08T05:01:07.619Z,9.9
2022-11-08T05:02:24.723Z,9.8
2022-11-08T05:03:41.828Z,9.8
2022-11-08T05:04:58.932Z,9.8
2022-11-08T05:06:16.037Z,9.7
2022-11-08T05:07:33.141Z,9.7
2022-11-08T05:08:50.246Z,9.7
2022-11-08T05:10:07.351Z,9.7
2022-11-08T05:11:24.455Z,9.7
2022-11-08T05:12:41.560Z,9.7
2022-11-08T05:13:58.664Z,9.8
2022-11-08T05:15:15.769Z,9.8
2022-11-08T05:16:32.873Z,9.8
2022-11-08T05:17:48.994Z,9.8
2022-11-08T05:19:06.099Z,9.7
2022-11-08T05:20:23.203Z,9.7
2022-11-08T05:21:40.308Z,9.7
2022-11-08T05:22:57.413Z,9.7
2022-11-08T05:24:14.517Z,9.7
2022-11-08T05:25:31.622Z,9.7
2022-11-08T05:26:48.726Z,9.8
2022-11-08T05:28:05.831Z,9.8
2022-11-08T05:29:22.935Z,9.8
2022-11-08T05:30:40.040Z,9.8
2022-11-08T05:31:57.145Z,9.8
2022-11-08T05:33:14.249Z,9.8
2022-11-08T05:34:30.370Z,9.8
2022-11-08T05:35:47.474Z,9.7
2022-11-08T05:37:04.579Z,9.7
2022-11-08T05:38:21.683Z,9.7
2022-11-08T05:39:38.788Z,9.7
2022-11-08T05:40:55.892Z,9.7
2022-11-08T05:42:12.997Z,9.7
2022-11-08T05:43:30.102Z,9.7
2022-11-08T05:44:47.206Z,9.7
2022-11-08T05:46:04.311Z,9.7
2022-11-08T05:47:21.415Z,9.7
2022-11-08T05:48:38.520Z,9.7
2022-11-08T05:49:55.624Z,9.7
2022-11-08T05:51:11.745Z,9.8
2022-11-08T05:52:28.849Z,9.8
2022-11-08T05:53:45.954Z,9.8
2022-11-08T05:55:03.059Z,9.8
2022-11-08T05:56:20.163Z,9.8
2022-11-08T05:57:37.268Z,9.7
2022-11-08T05:58:54.372Z,9.7
2022-11-08T06:00:11.477Z,9.7
2022-11-08T06:01:28.582Z,9.8
2022-11-08T06:02:45.686Z,9.8
2022-11-08T06:04:02.791Z,9.8
2022-11-08T06:05:19.896Z,9.8
2022-11-08T06:06:37.000Z,9.7
2022-11-08T06:07:53.121Z,9.7
2022-11-08T06:09:10.225Z,9.7
2022-11-08T06:10:27.330Z,9.7
2022-11-08T06:11:44.434Z,9.7
2022-11-08T06:13:01.539Z,9.7
2022-11-08T06:14:18.644Z,9.6
2022-11-08T06:15:34.764Z,9.6
2022-11-08T06:16:51.869Z,9.6
2022-11-08T06:18:08.974Z,9.6
2022-11-08T06:19:26.078Z,9.6
2022-11-08T06:20:43.183Z,9.6
2022-11-08T06:22:00.287Z,9.6
2022-11-08T06:23:17.392Z,9.6
2022-11-08T06:24:34.496Z,9.6
2022-11-08T06:25:51.601Z,9.6
2022-11-08T06:27:08.705Z,9.6
2022-11-08T06:28:25.810Z,9.6
2022-11-08T06:29:42.915Z,9.7
2022-11-08T06:31:00.019Z,9.7
2022-11-08T06:32:16.140Z,9.7
2022-11-08T06:33:33.244Z,9.7
2022-11-08T06:34:50.349Z,9.8
2022-11-08T06:36:07.453Z,9.8
2022-11-08T06:37:24.558Z,9.8
2022-11-08T06:38:41.662Z,9.8
2022-11-08T06:39:58.768Z,9.9
2022-11-08T06:41:15.872Z,9.8
2022-11-08T06:42:32.977Z,9.8
2022-11-08T06:43:50.081Z,9.9
2022-11-08T06:45:07.186Z,9.9
2022-11-08T06:46:24.290Z,9.9
2022-11-08T06:47:41.395Z,9.9
2022-11-08T06:48:57.516Z,10
2022-11-08T06:50:14.620Z,9.9
2022-11-08T06:51:31.725Z,9.9
2022-11-08T06:52:48.829Z,10
2022-11-08T06:54:05.934Z,10
2022-11-08T06:55:23.038Z,10.1
2022-11-08T06:56:40.143Z,10.1
2022-11-08T06:57:57.247Z,10.1
2022-11-08T06:59:14.352Z,10.1
2022-11-08T07:00:31.456Z,10.1
2022-11-08T07:01:48.561Z,10.2
2022-11-08T07:03:05.666Z,10.4
2022-11-08T07:04:22.770Z,10.6
2022-11-08T07:05:38.891Z,10.8
2022-11-08T07:06:55.995Z,11
2022-11-08T07:08:13.099Z,11.2
2022-11-08T07:09:30.204Z,11.4
2022-11-08T07:10:47.308Z,11.5
2022-11-08T07:12:04.413Z,11.7
2022-11-08T07:13:21.518Z,11.8
2022-11-08T07:14:38.622Z,11.7
2022-11-08T07:15:55.727Z,11.7
2022-11-08T07:17:12.831Z,11.6
2022-11-08T07:18:29.936Z,11.6
2022-11-08T07:19:47.040Z,11.7
2022-11-08T07:21:04.145Z,11.8
2022-11-08T07:22:20.266Z,11.9
2022-11-08T07:23:37.370Z,12
2022-11-08T07:24:54.475Z,12.1
2022-11-08T07:26:11.579Z,12.3
2022-11-08T07:27:28.684Z,12.4
2022-11-08T07:28:45.788Z,12.6
2022-11-08T07:30:02.893Z,12.7
2022-11-08T07:31:19.997Z,12.9
2022-11-08T07:32:37.101Z,13.1
2022-11-08T07:33:54.205Z,13.2
2022-11-08T07:35:11.310Z,13.2
2022-11-08T07:36:28.415Z,13.4
2022-11-08T07:37:45.519Z,13.5
2022-11-08T07:39:01.640Z,13.6
2022-11-08T07:41:35.848Z,13.8
2022-11-08T07:42:52.952Z,13.9
2022-11-08T07:44:10.056Z,14
2022-11-08T07:45:27.160Z,14
2022-11-08T07:46:44.265Z,14.2
2022-11-08T07:48:01.370Z,14.3
2022-11-08T07:49:18.474Z,14.2
2022-11-08T07:50:35.579Z,14.3
2022-11-08T07:51:52.683Z,14.4
2022-11-08T07:53:09.788Z,14.3
2022-11-08T07:54:26.892Z,14.3
2022-11-08T07:55:43.012Z,14.3
2022-11-08T07:57:00.116Z,14.5
2022-11-08T07:58:17.221Z,14.6
2022-11-08T07:59:34.324Z,14.7
2022-11-08T08:00:51.428Z,14.7
2022-11-08T08:02:08.532Z,14.6
2022-11-08T08:03:25.636Z,14.4
2022-11-08T08:04:42.740Z,14.3
2022-11-08T08:05:59.844Z,14.2
2022-11-08T08:07:16.948Z,14
2022-11-08T08:08:34.052Z,13.8
2022-11-08T08:09:51.156Z,13.7
2022-11-08T08:11:08.260Z,13.8
2022-11-08T08:12:24.380Z,13.9
2022-11-08T08:13:41.484Z,14
2022-11-08T08:14:58.588Z,14
2022-11-08T08:16:15.692Z,14
2022-11-08T08:17:32.796Z,14
2022-11-08T08:18:49.901Z,13.9
2022-11-08T08:20:07.005Z,14
2022-11-08T08:21:24.109Z,14
2022-11-08T08:22:41.213Z,14.3
2022-11-08T08:23:58.316Z,14.4
2022-11-08T08:25:15.420Z,14.5
2022-11-08T08:26:32.524Z,14.6
2022-11-08T08:27:49.628Z,14.7
2022-11-08T08:29:05.748Z,14.8
2022-11-08T08:30:22.852Z,14.9
2022-11-08T08:31:39.956Z,15.1
2022-11-08T08:32:57.060Z,15.1
2022-11-08T08:34:14.164Z,15.2
2022-11-08T08:35:31.268Z,15.3
2022-11-08T08:36:48.372Z,15.4
2022-11-08T08:38:05.476Z,15.4
2022-11-08T08:39:22.580Z,15.5
2022-11-08T08:40:39.684Z,15.4
2022-11-08T08:41:56.789Z,15.5
2022-11-08T08:43:13.893Z,15.4
2022-11-08T08:44:30.997Z,15.4
2022-11-08T08:45:47.117Z,15.4
2022-11-08T08:47:04.221Z,15.5
2022-11-08T08:48:21.326Z,15.3
2022-11-08T08:49:38.430Z,15.3
2022-11-08T08:50:55.534Z,15.4
2022-11-08T08:52:12.638Z,15.6
2022-11-08T08:53:29.742Z,15.8
2022-11-08T08:54:46.847Z,15.9
2022-11-08T08:56:03.951Z,15.9
2022-11-08T08:57:21.055Z,16.1
2022-11-08T08:58:38.159Z,16.3
2022-11-08T08:59:55.263Z,16.4
2022-11-08T09:01:12.368Z,16.5
2022-11-08T09:02:28.489Z,16.6
2022-11-08T09:03:45.593Z,16.6
2022-11-08T09:06:19.801Z,16.7
2022-11-08T09:07:36.906Z,16.6
2022-11-08T09:08:54.010Z,16.5
2022-11-08T09:10:11.114Z,16.6
2022-11-08T09:11:28.218Z,16.9
2022-11-08T09:12:45.322Z,17.1
2022-11-08T09:14:02.426Z,17.1
2022-11-08T09:15:19.530Z,17.1
2022-11-08T09:16:36.634Z,17.1
2022-11-08T09:17:53.738Z,17.1
2022-11-08T09:19:09.858Z,17.1
2022-11-08T09:20:26.962Z,17
2022-11-08T09:21:44.066Z,17
2022-11-08T09:23:01.170Z,17
2022-11-08T09:24:18.274Z,17
2022-11-08T09:25:35.378Z,17
2022-11-08T09:26:52.482Z,17.1
2022-11-08T09:28:09.586Z,17.2
2022-11-08T09:29:26.690Z,17.1
2022-11-08T09:30:43.794Z,16.9
2022-11-08T09:32:00.898Z,16.9
2022-11-08T09:33:18.002Z,16.9
2022-11-08T09:34:35.106Z,17.1
2022-11-08T09:35:51.226Z,17.1
2022-11-08T09:37:08.330Z,16.9
2022-11-08T09:38:25.435Z,17.1
2022-11-08T09:39:42.539Z,17.3
2022-11-08T09:40:59.643Z,17.4
2022-11-08T09:42:16.747Z,17.4
2022-11-08T09:43:33.851Z,17.4
2022-11-08T09:44:50.955Z,17.5
2022-11-08T09:46:08.059Z,17.5
2022-11-08T09:47:25.163Z,17.6
2022-11-08T09:48:42.267Z,17.7
2022-11-08T09:49:59.371Z,17.9
2022-11-08T09:51:16.476Z,18.1
2022-11-08T09:52:32.596Z,18.2
2022-11-08T09:53:49.700Z,18.2
2022-11-08T09:55:06.804Z,18.2
2022-11-08T09:56:23.908Z,18
2022-11-08T09:57:41.012Z,17.9
2022-11-08T09:58:58.116Z,17.6
2022-11-08T10:00:15.220Z,17.6
2022-11-08T10:01:32.324Z,17.6
2022-11-08T10:02:49.428Z,17.9
2022-11-08T10:04:06.532Z,18
2022-11-08T10:05:23.636Z,18.1
2022-11-08T10:06:40.739Z,18.3
2022-11-08T10:07:57.843Z,18.1
2022-11-08T10:09:13.963Z,17.8
2022-11-08T10:10:31.067Z,17.6
2022-11-08T10:11:48.172Z,17.6
2022-11-08T10:13:05.276Z,17.7
2022-11-08T10:14:22.379Z,17.9
2022-11-08T10:15:39.483Z,17.9
2022-11-08T10:16:56.587Z,18
2022-11-08T10:18:13.691Z,17.9
2022-11-08T10:19:30.795Z,17.8
2022-11-08T10:20:47.899Z,17.6
2022-11-08T10:22:05.003Z,17.5
2022-11-08T10:23:22.107Z,17.6
2022-11-08T10:24:39.211Z,17.6
2022-11-08T10:25:55.331Z,17.7
2022-11-08T10:27:12.435Z,17.7
2022-11-08T10:28:29.539Z,17.6
2022-11-08T10:29:46.643Z,17.7
2022-11-08T10:31:03.747Z,17.7
2022-11-08T10:32:20.851Z,17.7
2022-11-08T10:33:36.972Z,17.7
2022-11-08T10:34:54.076Z,17.6
2022-11-08T10:36:11.180Z,17.6
2022-11-08T10:37:28.285Z,17.5
2022-11-08T10:38:45.389Z,17.5
2022-11-08T10:40:02.493Z,17.6
2022-11-08T10:41:19.597Z,17.7
2022-11-08T10:42:36.701Z,17.7
2022-11-08T10:43:53.805Z,17.6
2022-11-08T10:45:10.910Z,17.6
2022-11-08T10:46:28.014Z,17.7
2022-11-08T10:47:45.118Z,17.5
2022-11-08T10:49:02.222Z,17.3
2022-11-08T10:50:18.343Z,17.1
2022-11-08T10:51:35.447Z,16.9
2022-11-08T10:52:52.551Z,17
2022-11-08T10:54:09.655Z,16.9
2022-11-08T10:55:26.759Z,16.8
2022-11-08T10:56:43.864Z,16.9
2022-11-08T10:58:00.968Z,16.9
2022-11-08T10:59:18.072Z,16.9
2022-11-08T11:00:35.176Z,16.7
2022-11-08T11:01:52.280Z,16.6
2022-11-08T11:03:09.385Z,16.6
2022-11-08T11:04:26.489Z,16.5
2022-11-08T11:05:43.593Z,16.4
2022-11-08T11:06:59.713Z,16.5
2022-11-08T11:08:16.818Z,16.5
2022-11-08T11:09:33.922Z,16.6
2022-11-08T11:10:51.026Z,16.6
2022-11-08T11:12:08.130Z,16.6
2022-11-08T11:13:25.234Z,16.5
2022-11-08T11:14:42.336Z,16.5
2022-11-08T11:17:16.543Z,16.6
2022-11-08T11:18:33.648Z,16.5
2022-11-08T11:19:50.752Z,16.4
2022-11-08T11:21:07.856Z,16.4
2022-11-08T11:22:24.960Z,16.3
2022-11-08T11:23:41.080Z,16.2
2022-11-08T11:24:58.184Z,16.2
2022-11-08T11:26:15.288Z,16.2
2022-11-08T11:27:32.392Z,16.2
2022-11-08T11:28:49.496Z,16.2
2022-11-08T11:30:06.600Z,16.3
2022-11-08T11:31:23.704Z,16.3
2022-11-08T11:32:40.807Z,16.2
2022-11-08T11:33:57.911Z,16.2
2022-11-08T11:35:15.015Z,16.2
2022-11-08T11:36:32.119Z,16.2
2022-11-08T11:37:49.223Z,16.2
2022-11-08T11:39:06.327Z,16.1
2022-11-08T11:40:22.446Z,16
2022-11-08T11:41:39.551Z,16
2022-11-08T11:42:56.655Z,15.8
2022-11-08T11:44:13.758Z,15.8
2022-11-08T11:45:30.862Z,15.9
2022-11-08T11:46:47.966Z,15.8
2022-11-08T11:48:05.070Z,15.7
2022-11-08T11:49:22.174Z,15.7
2022-11-08T11:50:39.278Z,15.7
2022-11-08T11:51:56.383Z,15.7
2022-11-08T11:53:13.486Z,15.7
2022-11-08T11:54:30.590Z,15.7
2022-11-08T11:55:47.694Z,15.7
2022-11-08T11:57:03.814Z,15.7
2022-11-08T11:58:20.918Z,15.5
2022-11-08T11:59:38.021Z,15.5
2022-11-08T12:00:55.125Z,15.4
2022-11-08T12:02:12.229Z,15.5
2022-11-08T12:03:29.333Z,15.4
2022-11-08T12:04:46.437Z,15.4
2022-11-08T12:06:03.542Z,15.5
2022-11-08T12:07:20.645Z,15.5
2022-11-08T12:08:37.749Z,15.5
2022-11-08T12:09:54.853Z,15.5
2022-11-08T12:11:11.957Z,15.4
2022-11-08T12:12:29.061Z,15.4
2022-11-08T12:13:45.181Z,15.5
2022-11-08T12:15:02.285Z,15.4
2022-11-08T12:16:19.390Z,15.5
2022-11-08T12:17:36.494Z,15.5
2022-11-08T12:18:53.598Z,15.6
2022-11-08T12:20:10.702Z,15.6
2022-11-08T12:21:27.806Z,15.7
2022-11-08T12:22:44.910Z,15.7
2022-11-08T12:24:02.013Z,15.7
2022-11-08T12:25:19.118Z,15.5
2022-11-08T12:26:36.222Z,15.3
2022-11-08T12:27:53.326Z,15.4
2022-11-08T12:29:10.430Z,15.5
2022-11-08T12:30:26.550Z,15.5
2022-11-08T12:31:43.654Z,15.6
2022-11-08T12:33:00.758Z,15.6
2022-11-08T12:34:17.862Z,15.5
2022-11-08T12:35:34.967Z,15.6
2022-11-08T12:36:52.071Z,15.7
2022-11-08T12:38:09.176Z,15.8
2022-11-08T12:39:26.279Z,15.8
2022-11-08T12:40:43.383Z,15.8
2022-11-08T12:42:00.488Z,15.7
2022-11-08T12:43:17.592Z,15.7
2022-11-08T12:44:34.696Z,15.5
2022-11-08T12:45:51.800Z,15.6
2022-11-08T12:47:07.920Z,15.7
2022-11-08T12:48:25.024Z,15.7
2022-11-08T12:49:42.128Z,15.8
2022-11-08T12:50:59.232Z,15.9
2022-11-08T12:52:16.336Z,15.9
2022-11-08T12:53:33.441Z,16
2022-11-08T12:54:50.545Z,16
2022-11-08T12:56:07.649Z,16.1
2022-11-08T12:57:24.753Z,16.1
2022-11-08T12:58:41.858Z,16.2
2022-11-08T12:59:58.963Z,16.1
2022-11-08T13:01:16.068Z,16
2022-11-08T13:02:33.172Z,16
2022-11-08T13:03:49.292Z,16
2022-11-08T13:05:06.397Z,16
2022-11-08T13:06:23.501Z,15.9
2022-11-08T13:07:40.605Z,15.9
2022-11-08T13:08:57.710Z,15.9
2022-11-08T13:10:14.814Z,15.9
2022-11-08T13:11:31.919Z,15.9
2022-11-08T13:12:49.023Z,16
2022-11-08T13:14:06.127Z,16.1
2022-11-08T13:15:23.231Z,16.1
2022-11-08T13:16:40.335Z,16.1
2022-11-08T13:17:57.439Z,16.2
2022-11-08T13:19:14.543Z,16.3
2022-11-08T13:20:30.663Z,16.3
2022-11-08T13:21:47.767Z,16.2
2022-11-08T13:23:04.871Z,16.3
2022-11-08T13:24:21.975Z,16.3
2022-11-08T13:25:39.079Z,16.3
2022-11-08T13:26:56.184Z,16.4
2022-11-08T13:28:13.288Z,16.3
2022-11-08T13:29:30.391Z,16.3
2022-11-08T13:30:47.495Z,16.3
2022-11-08T13:32:04.599Z,16.4
2022-11-08T13:33:21.703Z,16.4
2022-11-08T13:34:38.807Z,16.4
2022-11-08T13:35:55.911Z,16.4
2022-11-08T13:37:12.031Z,16.4
2022-11-08T13:38:29.135Z,16.4
2022-11-08T13:39:46.239Z,16.2
2022-11-08T13:41:03.343Z,16.2
2022-11-08T13:42:20.446Z,16.2
2022-11-08T13:43:37.551Z,16.2
2022-11-08T13:44:54.654Z,16.2
2022-11-08T13:46:11.758Z,16.2
2022-11-08T13:47:28.862Z,16.2
2022-11-08T13:48:45.966Z,16.2
2022-11-08T13:50:03.069Z,16.2
2022-11-08T13:51:20.173Z,16.2
2022-11-08T13:52:37.277Z,16.2
2022-11-08T13:53:53.397Z,16.2
2022-11-08T13:55:10.501Z,16.2
2022-11-08T13:56:27.605Z,16.3
2022-11-08T13:57:44.709Z,16.3
2022-11-08T13:59:01.813Z,16.3
2022-11-08T14:00:18.917Z,16.4
2022-11-08T14:01:36.021Z,16.4
2022-11-08T14:02:53.125Z,16.4
2022-11-08T14:04:10.229Z,16.5
2022-11-08T14:05:27.333Z,16.4
2022-11-08T14:06:44.437Z,16.4
2022-11-08T14:08:01.541Z,16.4
2022-11-08T14:09:18.645Z,16.3
2022-11-08T14:10:34.765Z,16.3
2022-11-08T14:11:51.869Z,16.3
2022-11-08T14:13:08.972Z,16.3
2022-11-08T14:14:26.076Z,16.2
2022-11-08T14:15:43.180Z,16.2
2022-11-08T14:17:00.284Z,16.2
2022-11-08T14:18:17.388Z,16.1
2022-11-08T14:19:34.492Z,16
2022-11-08T14:20:51.596Z,16
2022-11-08T14:22:08.700Z,15.9
2022-11-08T14:23:25.804Z,15.9
2022-11-08T14:24:42.907Z,15.9
2022-11-08T14:26:00.012Z,15.9
2022-11-08T14:27:16.132Z,15.9
2022-11-08T14:28:33.236Z,15.9
2022-11-08T14:29:50.340Z,15.8
2022-11-08T14:31:07.445Z,15.7
2022-11-08T14:32:24.549Z,15.7
2022-11-08T14:33:41.653Z,15.7
2022-11-08T14:34:58.756Z,15.6
2022-11-08T14:36:15.861Z,15.6
2022-11-08T14:37:32.965Z,15.7
2022-11-08T14:38:50.070Z,15.7
2022-11-08T14:40:07.174Z,15.6
2022-11-08T14:41:24.279Z,15.7
2022-11-08T14:42:41.383Z,15.6
2022-11-08T14:43:57.504Z,15.7
2022-11-08T14:45:14.608Z,15.6
2022-11-08T14:46:31.713Z,15.6
2022-11-08T14:47:48.817Z,15.6
2022-11-08T14:49:05.921Z,15.5
2022-11-08T14:50:23.026Z,15.5
2022-11-08T14:51:39.146Z,15.5
2022-11-08T14:52:56.251Z,15.5
2022-11-08T14:54:13.355Z,15.6
2022-11-08T14:55:30.459Z,15.5
2022-11-08T14:56:47.564Z,15.5
2022-11-08T14:58:04.668Z,15.5
2022-11-08T14:59:21.772Z,15.5
2022-11-08T15:00:38.878Z,15.5
2022-11-08T15:01:55.982Z,15.5
2022-11-08T15:03:13.087Z,15.5
2022-11-08T15:04:30.191Z,15.5
2022-11-08T15:05:47.295Z,15.4
2022-11-08T15:07:04.400Z,15.4
2022-11-08T15:08:20.518Z,15.4
2022-11-08T15:09:37.622Z,15.4
2022-11-08T15:10:54.726Z,15.4
2022-11-08T15:12:11.830Z,15.4
2022-11-08T15:13:28.935Z,15.5
2022-11-08T15:14:46.040Z,15.5
2022-11-08T15:16:03.144Z,15.5
2022-11-08T15:17:20.249Z,15.5
2022-11-08T15:18:37.353Z,15.5
2022-11-08T15:19:54.457Z,15.5
2022-11-08T15:21:11.562Z,15.5
2022-11-08T15:22:28.666Z,15.5
2022-11-08T15:23:45.771Z,15.5
2022-11-08T15:25:01.892Z,15.5
2022-11-08T15:26:18.996Z,15.5
2022-11-08T15:27:36.100Z,15.5
2022-11-08T15:28:53.204Z,15.5
2022-11-08T15:30:10.309Z,15.5
2022-11-08T15:31:27.413Z,15.5
2022-11-08T15:32:44.519Z,15.4
2022-11-08T15:34:01.623Z,15.4
2022-11-08T15:35:18.728Z,15.4
2022-11-08T15:36:35.832Z,15.4
2022-11-08T15:37:52.937Z,15.5
2022-11-08T15:39:10.041Z,15.4
2022-11-08T15:40:27.146Z,15.4
2022-11-08T15:41:43.266Z,15.4
2022-11-08T15:43:00.371Z,15.4
2022-11-08T15:44:17.475Z,15.4
2022-11-08T15:45:34.580Z,15.4
2022-11-08T15:46:51.684Z,15.3
2022-11-08T15:48:08.789Z,15.4
2022-11-08T15:49:25.893Z,15.4
2022-11-08T15:50:42.998Z,15.3
2022-11-08T15:52:00.102Z,15.3
2022-11-08T15:53:17.207Z,15.3
2022-11-08T15:54:34.311Z,15.3
2022-11-08T15:55:51.416Z,15.3
2022-11-08T15:57:08.520Z,15.2
2022-11-08T15:58:24.641Z,15.2
2022-11-08T15:59:41.746Z,15.3
2022-11-08T16:00:58.850Z,15.2
2022-11-08T16:02:15.955Z,15.3
2022-11-08T16:03:33.059Z,15.2
2022-11-08T16:04:50.163Z,15.2
2022-11-08T16:06:07.268Z,15.2
2022-11-08T16:07:24.372Z,15.1
2022-11-08T16:08:41.477Z,15.1
2022-11-08T16:09:58.581Z,15.1
2022-11-08T16:11:15.686Z,15.1
2022-11-08T16:12:32.788Z,15
2022-11-08T16:13:49.893Z,15
2022-11-08T16:15:06.013Z,15
2022-11-08T16:16:23.118Z,15
2022-11-08T16:17:40.222Z,15
2022-11-08T16:18:57.327Z,15
2022-11-08T16:20:14.431Z,15.1
2022-11-08T16:21:31.536Z,15
2022-11-08T16:22:48.640Z,15
2022-11-08T16:24:05.744Z,15
2022-11-08T16:25:22.849Z,15
2022-11-08T16:26:39.953Z,15
2022-11-08T16:27:57.057Z,15
2022-11-08T16:29:14.162Z,15
2022-11-08T16:30:31.267Z,15
2022-11-08T16:31:47.388Z,14.9
2022-11-08T16:33:04.492Z,15
2022-11-08T16:34:21.597Z,15
2022-11-08T16:35:38.701Z,15
2022-11-08T16:36:55.805Z,15
2022-11-08T16:38:12.910Z,14.9
2022-11-08T16:39:30.014Z,15
2022-11-08T16:40:47.118Z,15
2022-11-08T16:42:04.223Z,14.9
2022-11-08T16:43:21.327Z,14.9
2022-11-08T16:44:38.431Z,14.9
2022-11-08T16:45:55.536Z,14.9
2022-11-08T16:47:12.640Z,14.9
2022-11-08T16:48:28.761Z,14.9
2022-11-08T16:49:45.865Z,14.9
2022-11-08T16:51:02.970Z,14.9
2022-11-08T16:52:20.074Z,14.9
2022-11-08T16:53:37.179Z,14.9
2022-11-08T16:54:54.283Z,14.9
2022-11-08T16:56:11.387Z,14.9
2022-11-08T16:57:28.491Z,15
2022-11-08T16:58:45.596Z,14.9
2022-11-08T17:00:02.700Z,14.9
2022-11-08T17:01:19.804Z,15
2022-11-08T17:02:36.909Z,14.9
2022-11-08T17:03:54.014Z,15
2022-11-08T17:05:10.134Z,15
2022-11-08T17:06:27.238Z,14.9
2022-11-08T17:07:44.343Z,15
2022-11-08T17:09:01.447Z,15
2022-11-08T17:10:18.552Z,15
2022-11-08T17:11:35.656Z,15
2022-11-08T17:12:52.761Z,15
2022-11-08T17:14:09.865Z,15
2022-11-08T17:15:26.970Z,15
2022-11-08T17:16:44.074Z,14.9
2022-11-08T17:18:01.178Z,15
2022-11-08T17:19:18.282Z,15
2022-11-08T17:20:35.386Z,15